createdAt,value
2018-12-12T00:02:19.303Z,87.40
2018-12-12T00:04:58.228Z,87.90
2018-12-12T00:07:42.485Z,87.90
2018-12-12T00:10:20.482Z,87.90
2018-12-12T00:13:03.197Z,88.00
2018-12-12T00:15:38.336Z,88.40
2018-12-12T00:18:15.929Z,88.60
2018-12-12T00:20:52.806Z,88.80
2018-12-12T00:23:29.889Z,88.40
2018-12-12T00:26:03.285Z,88.90
2018-12-12T00:28:38.934Z,88.80
2018-12-12T00:31:22.365Z,88.80
2018-12-12T00:33:59.242Z,88.80
2018-12-12T00:36:36.632Z,88.80
2018-12-12T00:39:11.974Z,88.70
2018-12-12T00:41:55.508Z,88.70
2018-12-12T00:44:32.589Z,89.00
2018-12-12T00:47:08.852Z,89.50
2018-12-12T00:49:44.912Z,89.10
2018-12-12T00:52:20.868Z,89.00
2018-12-12T00:55:05.529Z,89.20
2018-12-12T00:57:43.329Z,89.10
2018-12-12T01:00:19.081Z,89.20
2018-12-12T01:03:02.684Z,89.40
2018-12-12T01:05:40.207Z,89.40
2018-12-12T01:08:23.638Z,89.40
2018-12-12T01:13:40.568Z,90.00
2018-12-12T01:16:20.458Z,90.00
2018-12-12T01:18:57.700Z,90.10
2018-12-12T01:21:34.583Z,90.00
2018-12-12T01:24:18.940Z,90.00
2018-12-12T01:27:02.165Z,90.00
2018-12-12T01:29:38.428Z,89.90
2018-12-12T01:32:15.715Z,90.00
2018-12-12T01:34:52.286Z,90.00
2018-12-12T01:37:34.900Z,90.00
2018-12-12T01:40:11.265Z,89.60
2018-12-12T01:42:57.973Z,89.30
2018-12-12T01:45:34.238Z,89.10
2018-12-12T01:48:18.079Z,89.20
2018-12-12T01:50:54.446Z,88.90
2018-12-12T01:53:37.161Z,89.00
2018-12-12T01:56:20.288Z,89.10
2018-12-12T01:58:56.958Z,88.60
2018-12-12T02:01:40.274Z,88.70
2018-12-12T02:04:30.566Z,88.70
2018-12-12T02:07:22.498Z,88.90
2018-12-12T02:09:55.908Z,89.00
2018-12-12T02:12:32.582Z,89.00
2018-12-12T02:15:21.220Z,88.90
2018-12-12T02:18:07.023Z,88.90
2018-12-12T02:20:51.786Z,89.30
2018-12-12T02:23:28.255Z,89.50
2018-12-12T02:26:04.090Z,89.60
2018-12-12T02:31:57.187Z,89.90
2018-12-12T02:34:41.489Z,89.90
2018-12-12T02:37:19.114Z,89.90
2018-12-12T02:39:56.096Z,89.50
2018-12-12T02:42:32.074Z,89.60
2018-12-12T02:45:08.108Z,89.50
2018-12-12T02:47:50.653Z,89.30
2018-12-12T02:50:36.429Z,89.30
2018-12-12T02:53:19.554Z,89.50
2018-12-12T02:56:06.263Z,89.60
2018-12-12T02:58:42.704Z,89.50
2018-12-12T03:01:20.379Z,89.50
2018-12-12T03:04:03.936Z,89.40
2018-12-12T03:06:47.190Z,89.30
2018-12-12T03:09:23.322Z,89.30
2018-12-12T03:12:01.020Z,89.30
2018-12-12T03:14:44.144Z,89.40
2018-12-12T03:17:29.623Z,89.40
2018-12-12T03:22:41.158Z,89.20
2018-12-12T03:25:24.778Z,89.40
2018-12-12T03:28:02.149Z,89.60
2018-12-12T03:30:37.390Z,90.20
2018-12-12T03:33:22.563Z,89.70
2018-12-12T03:36:07.632Z,89.70
2018-12-12T03:39:00.380Z,89.80
2018-12-12T03:41:45.180Z,89.80
2018-12-12T03:44:27.735Z,89.70
2018-12-12T03:47:04.530Z,89.60
2018-12-12T03:49:41.305Z,89.70
2018-12-12T03:52:25.966Z,89.70
2018-12-12T03:55:09.192Z,89.80
2018-12-12T03:57:51.812Z,89.80
2018-12-12T04:00:39.843Z,89.90
2018-12-12T04:03:23.685Z,90.00
2018-12-12T04:06:01.585Z,90.10
2018-12-12T04:08:37.647Z,90.10
2018-12-12T04:11:14.213Z,90.10
2018-12-12T04:13:58.672Z,90.10
2018-12-12T04:16:38.927Z,90.10
2018-12-12T04:19:19.899Z,90.20
2018-12-12T04:21:59.031Z,90.20
2018-12-12T04:24:45.229Z,90.40
2018-12-12T04:27:28.451Z,90.80
2018-12-12T04:30:03.291Z,90.60
2018-12-12T04:32:40.982Z,90.60
2018-12-12T04:35:25.228Z,90.60
2018-12-12T04:38:09.480Z,90.60
2018-12-12T04:40:56.936Z,90.60
2018-12-12T04:43:33.688Z,90.60
2018-12-12T04:46:21.313Z,90.70
2018-12-12T04:48:57.677Z,90.70
2018-12-12T04:51:42.336Z,90.80
2018-12-12T04:54:18.600Z,90.90
2018-12-12T04:56:55.054Z,90.80
2018-12-12T04:59:32.071Z,90.90
2018-12-12T05:02:09.657Z,90.80
2018-12-12T05:04:45.600Z,91.00
2018-12-12T05:07:28.420Z,91.10
2018-12-12T05:10:05.809Z,91.10
2018-12-12T05:12:41.766Z,91.10
2018-12-12T05:15:26.464Z,91.10
2018-12-12T05:18:02.280Z,91.00
2018-12-12T05:20:38.134Z,91.00
2018-12-12T05:23:16.138Z,91.00
2018-12-12T05:25:54.122Z,91.00
2018-12-12T05:28:31.726Z,91.00
2018-12-12T05:31:07.118Z,91.00
2018-12-12T05:33:44.162Z,91.00
2018-12-12T05:36:21.861Z,91.10
2018-12-12T05:38:58.944Z,91.00
2018-12-12T05:41:34.885Z,91.20
2018-12-12T05:44:12.700Z,91.00
2018-12-12T05:46:55.283Z,91.00
2018-12-12T05:49:32.089Z,90.90
2018-12-12T05:52:09.377Z,91.00
2018-12-12T05:54:52.501Z,90.80
2018-12-12T05:57:30.301Z,90.70
2018-12-12T06:00:15.884Z,90.50
2018-12-12T06:02:58.554Z,90.60
2018-12-12T06:05:34.843Z,90.40
2018-12-12T06:08:10.901Z,90.40
2018-12-12T06:10:47.573Z,90.60
2018-12-12T06:13:32.153Z,90.60
2018-12-12T06:16:16.178Z,90.50
2018-12-12T06:18:54.716Z,90.50
2018-12-12T06:21:35.359Z,90.50
2018-12-12T06:24:11.419Z,90.60
2018-12-12T06:26:55.384Z,90.50
2018-12-12T06:29:32.753Z,90.50
2018-12-12T06:32:09.757Z,90.50
2018-12-12T06:34:53.268Z,90.40
2018-12-12T06:37:29.836Z,90.30
2018-12-12T06:40:19.618Z,90.30
2018-12-12T06:45:37.085Z,90.30
2018-12-12T06:48:11.478Z,90.30
2018-12-12T06:50:56.856Z,90.20
2018-12-12T06:53:44.617Z,90.40
2018-12-12T06:56:21.261Z,90.30
2018-12-12T06:58:57.728Z,90.20
2018-12-12T07:01:34.300Z,90.40
2018-12-12T07:04:08.617Z,90.20
2018-12-12T07:06:53.891Z,90.20
2018-12-12T07:09:30.973Z,90.20
2018-12-12T07:12:13.995Z,90.10
2018-12-12T07:14:50.464Z,90.00
2018-12-12T07:17:27.546Z,90.10
2018-12-12T07:20:01.768Z,90.00
2018-12-12T07:22:38.638Z,90.20
2018-12-12T07:25:22.173Z,89.60
2018-12-12T07:28:06.321Z,89.40
2018-12-12T07:30:44.017Z,89.70
2018-12-12T07:33:20.589Z,89.70
2018-12-12T07:36:06.274Z,89.70
2018-12-12T07:38:41.962Z,89.70
2018-12-12T07:41:19.722Z,89.90
2018-12-12T07:44:06.943Z,89.70
2018-12-12T07:47:08.089Z,89.70
2018-12-12T07:49:54.592Z,90.00
2018-12-12T07:52:55.639Z,90.00
2018-12-12T07:55:32.104Z,90.10
2018-12-12T07:58:14.922Z,90.10
2018-12-12T08:00:52.829Z,90.00
2018-12-12T08:03:27.755Z,90.00
2018-12-12T08:06:05.759Z,90.00
2018-12-12T08:08:43.047Z,90.20
2018-12-12T08:11:26.582Z,90.00
2018-12-12T08:14:09.498Z,90.00
2018-12-12T08:16:46.491Z,90.10
2018-12-12T08:19:20.413Z,90.40
2018-12-12T08:22:04.684Z,89.60
2018-12-12T08:24:49.736Z,89.90
2018-12-12T08:27:27.347Z,89.90
2018-12-12T08:30:02.362Z,89.70
2018-12-12T08:32:39.671Z,89.60
2018-12-12T08:35:16.650Z,89.10
2018-12-12T08:37:59.571Z,88.70
2018-12-12T08:40:36.839Z,88.50
2018-12-12T08:43:11.732Z,88.50
2018-12-12T08:45:48.650Z,88.50
2018-12-12T08:48:26.162Z,88.30
2018-12-12T08:51:03.757Z,88.20
2018-12-12T08:53:48.090Z,88.00
2018-12-12T08:56:31.850Z,87.40
2018-12-12T08:59:08.370Z,87.90
2018-12-12T09:01:45.479Z,87.30
2018-12-12T09:04:21.064Z,87.00
2018-12-12T09:06:55.140Z,86.90
2018-12-12T09:09:31.198Z,87.30
2018-12-12T09:12:07.730Z,87.50
2018-12-12T09:14:44.058Z,87.60
2018-12-12T09:17:19.727Z,86.70
2018-12-12T09:19:56.867Z,86.50
2018-12-12T09:22:40.632Z,86.20
2018-12-12T09:25:16.869Z,86.30
2018-12-12T09:27:54.666Z,86.20
2018-12-12T09:30:31.916Z,86.20
2018-12-12T09:33:10.368Z,86.60
2018-12-12T09:36:03.810Z,86.40
2018-12-12T09:38:38.696Z,86.30
2018-12-12T09:41:14.619Z,85.90
2018-12-12T09:43:58.664Z,86.20
2018-12-12T09:46:44.041Z,86.20
2018-12-12T09:49:16.491Z,86.10
2018-12-12T09:51:54.826Z,86.00
2018-12-12T09:54:41.330Z,84.90
2018-12-12T09:57:24.558Z,83.40
2018-12-12T10:00:00.921Z,83.40
2018-12-12T10:02:45.583Z,82.90
2018-12-12T10:05:29.324Z,82.60
2018-12-12T10:08:13.881Z,82.90
2018-12-12T10:10:59.665Z,82.40
2018-12-12T10:13:49.035Z,82.30
2018-12-12T10:16:33.900Z,82.00
2018-12-12T10:19:12.006Z,82.30
2018-12-12T10:21:55.233Z,81.60
2018-12-12T10:24:40.101Z,81.50
2018-12-12T10:27:23.119Z,81.80
2018-12-12T10:29:59.364Z,81.90
2018-12-12T10:32:36.157Z,81.60
2018-12-12T10:35:19.998Z,80.00
2018-12-12T10:38:05.068Z,80.50
2018-12-12T10:40:41.229Z,79.50
2018-12-12T10:43:24.968Z,78.90
2018-12-12T10:46:09.116Z,78.80
2018-12-12T10:48:43.845Z,78.80
2018-12-12T10:51:22.565Z,78.20
2018-12-12T10:54:06.916Z,78.00
2018-12-12T10:56:42.669Z,78.00
2018-12-12T10:59:17.396Z,76.90
2018-12-12T11:01:56.527Z,77.60
2018-12-12T11:04:41.804Z,77.50
2018-12-12T11:07:25.541Z,77.10
2018-12-12T11:10:02.522Z,75.70
2018-12-12T11:12:46.361Z,76.90
2018-12-12T11:15:22.828Z,78.80
2018-12-12T11:17:59.400Z,77.60
2018-12-12T11:20:35.767Z,78.40
2018-12-12T11:23:20.734Z,79.20
2018-12-12T11:25:57.408Z,78.20
2018-12-12T11:28:41.761Z,76.60
2018-12-12T11:31:16.386Z,75.20
2018-12-12T11:33:59.716Z,75.00
2018-12-12T11:36:43.660Z,75.00
2018-12-12T11:39:20.231Z,74.00
2018-12-12T11:42:05.714Z,73.20
2018-12-12T11:44:49.962Z,73.70
2018-12-12T11:47:26.327Z,73.80
2018-12-12T11:50:03.205Z,73.10
2018-12-12T11:52:40.390Z,75.10
2018-12-12T11:55:18.734Z,74.10
2018-12-12T11:58:03.057Z,74.80
2018-12-12T12:00:38.360Z,73.50
2018-12-12T12:03:15.379Z,74.50
2018-12-12T12:05:58.298Z,74.40
2018-12-12T12:08:33.349Z,75.50
2018-12-12T12:11:11.123Z,75.10
2018-12-12T12:13:49.855Z,74.20
2018-12-12T12:16:32.570Z,74.00
2018-12-12T12:19:09.960Z,75.00
2018-12-12T12:21:54.112Z,74.30
2018-12-12T12:24:38.464Z,74.20
2018-12-12T12:27:21.177Z,74.90
2018-12-12T12:30:01.338Z,74.70
2018-12-12T12:32:46.915Z,75.90
2018-12-12T12:35:29.118Z,74.60
2018-12-12T12:38:18.539Z,75.20
2018-12-12T12:40:56.989Z,74.70
2018-12-12T12:43:40.854Z,75.40
2018-12-12T12:46:25.815Z,74.50
2018-12-12T12:49:01.976Z,74.60
2018-12-12T12:51:45.510Z,75.60
2018-12-12T12:54:29.639Z,76.30
2018-12-12T12:57:14.403Z,75.60
2018-12-12T12:59:53.227Z,76.70
2018-12-12T13:02:42.695Z,75.80
2018-12-12T13:05:26.767Z,75.30
2018-12-12T13:08:09.890Z,76.50
2018-12-12T13:10:46.442Z,76.00
2018-12-12T13:13:29.812Z,76.00
2018-12-12T13:16:13.531Z,76.00
2018-12-12T13:18:49.618Z,76.00
2018-12-12T13:21:25.828Z,76.40
2018-12-12T13:23:59.942Z,75.30
2018-12-12T13:26:37.356Z,76.30
2018-12-12T13:29:14.319Z,76.20
2018-12-12T13:31:49.334Z,76.60
2018-12-12T13:34:25.305Z,76.70
2018-12-12T13:37:09.887Z,76.90
2018-12-12T13:39:46.430Z,75.80
2018-12-12T13:42:23.923Z,76.50
2018-12-12T13:45:03.157Z,76.50
2018-12-12T13:47:39.524Z,77.10
2018-12-12T13:50:15.629Z,76.60
2018-12-12T13:52:51.740Z,76.40
2018-12-12T13:55:29.028Z,76.80
2018-12-12T13:58:04.107Z,76.50
2018-12-12T14:00:52.922Z,77.80
2018-12-12T14:03:35.821Z,78.30
2018-12-12T14:06:11.079Z,78.60
2018-12-12T14:08:49.086Z,78.20
2018-12-12T14:11:26.678Z,78.20
2018-12-12T14:14:01.713Z,78.30
2018-12-12T14:16:45.862Z,78.40
2018-12-12T14:19:23.558Z,79.20
2018-12-12T14:22:05.715Z,78.50
2018-12-12T14:24:42.433Z,78.40
2018-12-12T14:27:28.117Z,78.60
2018-12-12T14:30:04.995Z,78.70
2018-12-12T14:32:46.231Z,79.00
2018-12-12T14:35:22.439Z,78.60
2018-12-12T14:37:56.586Z,79.30
2018-12-12T14:40:30.152Z,78.80
2018-12-12T14:43:08.636Z,78.90
2018-12-12T14:45:55.321Z,78.70
2018-12-12T14:48:36.325Z,78.90
2018-12-12T14:51:09.952Z,79.80
2018-12-12T14:53:44.888Z,79.50
2018-12-12T14:56:20.065Z,80.20
2018-12-12T14:58:52.237Z,80.20
2018-12-12T15:01:24.976Z,80.50
2018-12-12T15:04:00.211Z,80.20
2018-12-12T15:06:41.847Z,80.60
2018-12-12T15:09:17.114Z,80.20
2018-12-12T15:11:47.402Z,80.10
2018-12-12T15:14:28.779Z,80.20
2018-12-12T15:17:03.284Z,80.40
2018-12-12T15:19:38.287Z,80.10
2018-12-12T15:22:20.170Z,80.20
2018-12-12T15:25:01.995Z,80.50
2018-12-12T15:27:40.077Z,80.30
2018-12-12T15:30:14.473Z,80.60
2018-12-12T15:32:54.544Z,80.70
2018-12-12T15:35:37.978Z,80.80
2018-12-12T15:38:24.698Z,81.00
2018-12-12T15:40:58.252Z,80.90
2018-12-12T15:43:35.563Z,81.10
2018-12-12T15:46:06.865Z,81.00
2018-12-12T15:48:49.766Z,81.00
2018-12-12T15:51:19.626Z,80.90
2018-12-12T15:54:01.346Z,81.30
2018-12-12T15:56:43.285Z,81.10
2018-12-12T15:59:15.170Z,81.50
2018-12-12T16:01:56.268Z,81.40
2018-12-12T16:04:38.330Z,81.70
2018-12-12T16:07:21.419Z,81.90
2018-12-12T16:09:56.469Z,81.70
2018-12-12T16:12:38.428Z,81.80
2018-12-12T16:15:19.540Z,82.00
2018-12-12T16:18:04.675Z,82.10
2018-12-12T16:20:39.887Z,82.00
2018-12-12T16:23:21.282Z,82.30
2018-12-12T16:26:03.394Z,82.10
2018-12-12T16:28:45.517Z,82.30
2018-12-12T16:31:27.525Z,82.30
2018-12-12T16:34:09.300Z,82.60
2018-12-12T16:36:40.150Z,82.70
2018-12-12T16:39:09.932Z,82.80
2018-12-12T16:41:48.738Z,82.50
2018-12-12T16:44:30.293Z,82.70
2018-12-12T16:47:33.952Z,82.40
2018-12-12T16:50:04.021Z,82.20
2018-12-12T16:52:45.923Z,82.60
2018-12-12T16:55:26.902Z,83.10
2018-12-12T16:58:08.703Z,82.80
2018-12-12T17:00:42.273Z,83.10
2018-12-12T17:03:17.237Z,82.80
2018-12-12T17:05:58.878Z,82.70
2018-12-12T17:08:37.316Z,82.30
2018-12-12T17:11:09.689Z,82.60
2018-12-12T17:13:51.346Z,82.30
2018-12-12T17:16:32.416Z,82.10
2018-12-12T17:19:04.927Z,82.50
2018-12-12T17:21:46.508Z,82.40
2018-12-12T17:24:27.745Z,82.30
2018-12-12T17:27:09.263Z,82.30
2018-12-12T17:29:44.554Z,82.40
2018-12-12T17:32:19.537Z,82.50
2018-12-12T17:34:58.502Z,82.00
2018-12-12T17:37:40.439Z,82.40
2018-12-12T17:40:13.554Z,82.10
2018-12-12T17:42:47.979Z,82.00
2018-12-12T17:45:23.028Z,82.00
2018-12-12T17:47:59.899Z,81.90
2018-12-12T17:50:31.574Z,81.90
2018-12-12T17:53:12.780Z,81.80
2018-12-12T17:55:54.957Z,82.10
2018-12-12T17:58:36.650Z,82.10
2018-12-12T18:01:17.963Z,82.00
2018-12-12T18:03:54.480Z,81.90
2018-12-12T18:06:31.599Z,81.80
2018-12-12T18:09:01.544Z,82.00
2018-12-12T18:11:45.186Z,82.20
2018-12-12T18:14:26.405Z,82.40
2018-12-12T18:17:03.927Z,82.30
2018-12-12T18:19:36.050Z,82.00
2018-12-12T18:22:17.486Z,82.20
2018-12-12T18:25:01.889Z,82.60
2018-12-12T18:27:43.991Z,82.30
2018-12-12T18:30:22.228Z,82.40
2018-12-12T18:33:05.500Z,82.60
2018-12-12T18:35:58.850Z,82.50
2018-12-12T18:38:40.031Z,82.40
2018-12-12T18:41:22.071Z,82.40
2018-12-12T18:44:03.071Z,82.70
2018-12-12T18:46:35.356Z,82.50
2018-12-12T18:49:09.327Z,82.50
2018-12-12T18:51:53.139Z,82.40
2018-12-12T18:54:36.531Z,82.70
2018-12-12T18:57:27.594Z,83.00
2018-12-12T19:00:08.835Z,83.00
2018-12-12T19:02:50.715Z,83.10
2018-12-12T19:05:28.212Z,83.50
2018-12-12T19:08:04.064Z,83.30
2018-12-12T19:54:35.306Z,83.70
2018-12-12T19:57:12.615Z,82.20
2018-12-12T19:59:42.894Z,82.70
2018-12-12T20:02:18.306Z,83.70
2018-12-12T20:04:52.759Z,83.80
2018-12-12T20:07:34.083Z,84.20
2018-12-12T20:10:09.563Z,84.20
2018-12-12T20:12:44.595Z,84.70
2018-12-12T20:15:16.662Z,84.70
2018-12-12T20:17:51.364Z,84.50
2018-12-12T20:20:23.658Z,84.70
2018-12-12T20:23:05.031Z,84.10
2018-12-12T20:25:46.911Z,83.90
2018-12-12T20:28:28.680Z,84.10
2018-12-12T20:31:09.667Z,84.60
2018-12-12T20:33:49.901Z,84.10
2018-12-12T20:36:33.846Z,83.90
2018-12-12T20:39:15.763Z,83.90
2018-12-12T20:41:45.344Z,84.00
2018-12-12T20:44:24.047Z,84.10
2018-12-12T20:47:05.769Z,84.00
2018-12-12T20:49:37.472Z,84.00
2018-12-12T20:52:19.237Z,84.00
2018-12-12T20:54:50.612Z,84.20
2018-12-12T20:57:21.009Z,84.30
2018-12-12T20:59:57.274Z,84.20
2018-12-12T21:02:31.846Z,84.30
2018-12-12T21:05:04.047Z,84.00
2018-12-12T21:07:45.496Z,84.00
2018-12-12T21:10:27.282Z,84.20
2018-12-12T21:13:02.535Z,83.60
2018-12-12T21:15:32.641Z,83.80
2018-12-12T21:18:04.904Z,83.60
2018-12-12T21:20:36.627Z,83.80
2018-12-12T21:23:18.380Z,83.80
2018-12-12T21:25:59.906Z,84.10
2018-12-12T21:28:41.619Z,83.90
2018-12-12T21:31:23.395Z,84.10
2018-12-12T21:33:58.556Z,84.00
2018-12-12T21:36:47.805Z,84.20
2018-12-12T21:39:29.495Z,83.90
2018-12-12T21:42:10.751Z,84.00
2018-12-12T21:44:51.795Z,83.80
2018-12-12T21:47:26.119Z,83.60
2018-12-12T21:49:58.422Z,83.90
2018-12-12T21:52:37.070Z,84.10
2018-12-12T21:55:09.357Z,83.90
2018-12-12T21:57:50.922Z,83.90
2018-12-12T22:00:25.370Z,84.00
2018-12-12T22:03:07.002Z,83.70
2018-12-12T22:05:42.378Z,83.80
2018-12-12T22:08:17.389Z,83.80
2018-12-12T22:10:49.695Z,83.80
2018-12-12T22:13:30.944Z,83.80
2018-12-12T22:16:10.046Z,83.80
2018-12-12T22:18:44.333Z,84.40
2018-12-12T22:21:25.884Z,84.40
2018-12-12T22:24:03.057Z,84.70
2018-12-12T22:26:44.903Z,85.00
2018-12-12T22:29:20.192Z,85.10
2018-12-12T22:31:50.243Z,85.30
2018-12-12T22:34:26.127Z,85.60
2018-12-12T22:36:56.291Z,85.70
2018-12-12T22:39:28.713Z,85.70
2018-12-12T22:42:04.279Z,85.70
2018-12-12T22:44:36.406Z,85.40
2018-12-12T22:47:11.438Z,85.40
2018-12-12T22:49:43.181Z,85.40
2018-12-12T22:52:18.251Z,85.40
2018-12-12T22:54:53.186Z,85.30
2018-12-12T22:57:34.674Z,84.70
2018-12-12T23:00:10.204Z,84.80
2018-12-12T23:02:54.185Z,84.90
2018-12-12T23:05:35.943Z,84.90
2018-12-12T23:08:18.010Z,84.90
2018-12-12T23:10:49.651Z,84.50
2018-12-12T23:13:24.876Z,84.80
2018-12-12T23:16:01.202Z,84.60
2018-12-12T23:18:33.774Z,84.80
2018-12-12T23:21:09.655Z,85.30
2018-12-12T23:23:51.610Z,84.50
2018-12-12T23:26:33.567Z,84.60
2018-12-12T23:29:06.052Z,84.60
2018-12-12T23:31:47.271Z,84.20
2018-12-12T23:34:28.282Z,84.20
2018-12-12T23:37:10.076Z,84.50
2018-12-12T23:39:41.792Z,84.20
2018-12-12T23:42:17.290Z,84.00
2018-12-12T23:44:52.258Z,83.90
2018-12-12T23:47:33.688Z,83.80
2018-12-12T23:50:05.056Z,83.80
2018-12-12T23:52:37.034Z,83.40
2018-12-12T23:55:12.045Z,83.80
2018-12-12T23:57:46.627Z,84.10
